Glassell Park, California
Current Conditions -  °F | °C
As of 7:47 AM on Friday 31 Oct 2014 (Local Time) from KCQT Reporting Station
Overcast Overcast  
Wind Chill: 64°   Ceiling: 1500
Heat Index: 64°   Visibility: 7mi
Dew Point: 57°   Wind: 0mph
Humidity: 78%   Direction: NA
Pressure: 29.96"   Gusts: NA
Location:  34.1092°N, 118.228°W
Report Text: KCQT 311447Z AUTO 00000KT 7SM BKN015 BKN029 OVC036 18/14 A2996 RMK AO2 SLP143 T01780139 53006
Loading
Personal Weather Stations






























Interactive Weather Map New forecast layout! Learn more

10-Day Weather Forecast

Advertisements
Track Severe Weather on mobile